Time;durP1;ratioP1;P1;durP2;ratioP2;P2;SDS_P1;SDS_P2;PMS_P1;PMS_P2;Temp;Humidity;BMP_temperature;BMP_pressure;BME280_temperature;BME280_humidity;BME280_pressure;Samples;Min_cycle;Max_cycle;Signal;HPM_P1;HPM_P2
2021/09/11 00:02:22;;;;;;;29.75;16.25;;;18.20;99.90;;;;;;5032134;28;20473;-84
2021/09/11 00:04:49;;;;;;;37.03;19.00;;;18.20;99.90;;;;;;5031805;28;20027;-84
2021/09/11 00:07:15;;;;;;;43.00;19.23;;;18.20;99.90;;;;;;5031570;28;20109;-84
2021/09/11 00:09:41;;;;;;;38.80;19.05;;;18.20;99.90;;;;;;5033240;28;20026;-83
2021/09/11 00:12:08;;;;;;;39.92;17.77;;;18.10;99.90;;;;;;5032890;28;20029;-83
2021/09/11 00:14:33;;;;;;;47.35;20.08;;;18.10;99.90;;;;;;5031836;28;20432;-84
2021/09/11 00:16:59;;;;;;;38.40;17.83;;;18.10;99.90;;;;;;5032915;28;20040;-84
2021/09/11 00:19:24;;;;;;;33.95;17.17;;;18.10;99.90;;;;;;5033132;28;20072;-83
2021/09/11 00:21:50;;;;;;;28.90;16.70;;;18.10;99.90;;;;;;5033341;28;20095;-84
2021/09/11 00:24:15;;;;;;;43.70;20.05;;;18.10;99.90;;;;;;5031143;28;20040;-83
2021/09/11 00:26:41;;;;;;;60.83;23.63;;;18.10;99.90;;;;;;5032860;28;20146;-83
2021/09/11 00:29:07;;;;;;;55.08;19.70;;;18.10;99.90;;;;;;5032933;28;20025;-84
2021/09/11 00:31:33;;;;;;;52.67;23.13;;;18.20;99.90;;;;;;5032908;28;20524;-84
2021/09/11 00:33:58;;;;;;;43.97;22.02;;;18.10;99.90;;;;;;5031057;28;20405;-84
2021/09/11 00:36:24;;;;;;;50.05;24.00;;;18.10;99.90;;;;;;5032778;28;20159;-83
2021/09/11 00:38:49;;;;;;;70.13;26.65;;;18.00;99.90;;;;;;5031497;28;20405;-83
2021/09/11 00:41:15;;;;;;;58.45;24.83;;;18.10;99.90;;;;;;5032697;28;20033;-83
2021/09/11 00:43:47;;;;;;;60.42;24.30;;;18.10;99.90;;;;;;5031934;28;20030;-84
2021/09/11 00:46:13;;;;;;;60.78;24.45;;;18.10;99.90;;;;;;5032590;28;20400;-84
2021/09/11 00:48:39;;;;;;;66.97;25.52;;;18.10;99.90;;;;;;5032540;28;20105;-84
2021/09/11 00:51:04;;;;;;;71.07;25.13;;;18.00;99.90;;;;;;5031367;28;20025;-84
2021/09/11 00:53:30;;;;;;;113.25;28.65;;;18.00;99.90;;;;;;5032046;28;20104;-83
2021/09/11 00:55:56;;;;;;;78.30;27.25;;;17.90;99.90;;;;;;5030913;28;20029;-83
2021/09/11 00:58:22;;;;;;;84.13;27.05;;;18.00;99.90;;;;;;5031086;28;20036;-82
2021/09/11 01:00:47;;;;;;;83.03;26.70;;;17.90;99.90;;;;;;5032327;28;20025;-84
2021/09/11 01:03:13;;;;;;;66.95;22.85;;;17.90;99.90;;;;;;5031432;28;20025;-84
2021/09/11 01:05:40;;;;;;;88.50;28.05;;;17.90;99.90;;;;;;5031734;28;20070;-84
2021/09/11 01:08:06;;;;;;;88.95;28.45;;;17.90;99.90;;;;;;5030871;28;20017;-83
2021/09/11 01:10:31;;;;;;;116.18;33.00;;;17.90;99.90;;;;;;5014416;28;20493;-84
2021/09/11 01:12:58;;;;;;;72.38;26.13;;;18.00;99.90;;;;;;5031991;28;20033;-84
2021/09/11 01:15:35;;;;;;;73.38;27.70;;;17.90;99.90;;;;;;5031520;28;20038;-84
2021/09/11 01:18:01;;;;;;;74.25;25.92;;;17.90;99.90;;;;;;5031895;28;20100;-84
2021/09/11 01:20:27;;;;;;;72.47;26.00;;;17.90;99.90;;;;;;5032074;28;20083;-84
2021/09/11 01:22:52;;;;;;;68.97;26.27;;;17.90;99.90;;;;;;5030676;28;20120;-84
2021/09/11 01:25:18;;;;;;;67.95;25.13;;;17.90;99.90;;;;;;5031467;28;20025;-84
2021/09/11 01:27:44;;;;;;;104.70;34.45;;;17.90;99.90;;;;;;5030683;28;20025;-84
2021/09/11 01:30:15;;;;;;;79.88;30.25;;;17.90;99.90;;;;;;5031856;28;20018;-83
2021/09/11 01:32:41;;;;;;;80.07;30.58;;;17.80;99.90;;;;;;5031348;28;20029;-84
2021/09/11 01:35:08;;;;;;;80.28;29.20;;;17.90;99.90;;;;;;5030295;28;20023;-84
2021/09/11 01:37:34;;;;;;;99.93;35.47;;;17.90;99.90;;;;;;5030496;28;20032;-84
2021/09/11 01:40:00;;;;;;;186.40;56.15;;;18.00;99.90;;;;;;5031831;28;20433;-84
2021/09/11 01:42:27;;;;;;;180.57;58.03;;;18.00;99.90;;;;;;5031181;28;20110;-84
2021/09/11 01:44:55;;;;;;;229.95;61.88;;;18.00;99.90;;;;;;5031524;28;20025;-84
2021/09/11 01:47:21;;;;;;;293.55;76.97;;;18.10;99.90;;;;;;5030327;28;20025;-84
2021/09/11 01:49:50;;;;;;;324.10;79.57;;;18.10;99.90;;;;;;5030519;28;20426;-84
2021/09/11 01:52:15;;;;;;;333.55;81.50;;;18.10;99.90;;;;;;5031409;28;20033;-84
2021/09/11 01:54:42;;;;;;;331.13;81.20;;;18.10;99.90;;;;;;5031469;28;20482;-84
2021/09/11 01:57:10;;;;;;;307.27;79.38;;;18.10;99.90;;;;;;5030258;28;20025;-84
2021/09/11 01:59:35;;;;;;;286.98;78.25;;;18.10;99.90;;;;;;5030360;28;20445;-85
2021/09/11 02:02:02;;;;;;;291.60;74.03;;;18.10;99.90;;;;;;5029977;28;20026;-84
2021/09/11 02:04:28;;;;;;;283.63;77.57;;;18.10;99.90;;;;;;5031321;28;20022;-84
2021/09/11 02:06:53;;;;;;;343.30;82.82;;;18.10;99.90;;;;;;5029941;28;20083;-84
2021/09/11 02:09:19;;;;;;;272.25;73.70;;;18.00;99.90;;;;;;5030251;28;20064;-84
2021/09/11 02:11:44;;;;;;;278.42;75.30;;;18.10;99.90;;;;;;5030216;28;20025;-84
2021/09/11 02:14:10;;;;;;;275.27;73.50;;;18.10;99.90;;;;;;5031797;28;20040;-84
2021/09/11 02:16:35;;;;;;;319.52;79.53;;;18.10;99.90;;;;;;5035281;28;20057;-84
2021/09/11 02:19:01;;;;;;;310.05;79.65;;;18.10;99.90;;;;;;5035346;28;20478;-85
2021/09/11 02:21:27;;;;;;;259.20;72.05;;;18.10;99.90;;;;;;5035356;28;20047;-84
2021/09/11 02:23:52;;;;;;;282.67;76.65;;;18.10;99.90;;;;;;5033453;28;20050;-85
2021/09/11 02:26:18;;;;;;;220.70;62.95;;;18.10;99.90;;;;;;5034742;28;20493;-85
2021/09/11 02:28:43;;;;;;;246.43;70.88;;;18.10;99.90;;;;;;5034906;28;20053;-85
2021/09/11 02:31:10;;;;;;;228.43;64.68;;;18.10;99.90;;;;;;5035109;28;20477;-84
2021/09/11 02:33:41;;;;;;;220.60;65.30;;;18.10;99.90;;;;;;5034754;28;20025;-84
2021/09/11 02:36:07;;;;;;;223.77;67.97;;;18.10;99.90;;;;;;5034945;28;20105;-84
2021/09/11 02:38:32;;;;;;;198.77;59.58;;;18.00;99.90;;;;;;5033795;28;20037;-85
2021/09/11 02:40:58;;;;;;;256.80;68.93;;;18.20;99.90;;;;;;5034987;28;20497;-84
2021/09/11 02:43:23;;;;;;;194.48;60.17;;;18.30;99.90;;;;;;5034458;28;20044;-85
2021/09/11 02:45:49;;;;;;;219.32;67.15;;;18.10;99.90;;;;;;5034524;28;20022;-84
2021/09/11 02:48:14;;;;;;;181.35;54.22;;;18.30;99.90;;;;;;5034633;28;20025;-85
2021/09/11 02:50:40;;;;;;;180.25;53.55;;;18.10;99.90;;;;;;5033568;28;20017;-84
2021/09/11 02:53:06;;;;;;;226.27;67.38;;;18.10;99.90;;;;;;5033331;28;20033;-85
2021/09/11 02:55:31;;;;;;;234.77;69.55;;;18.20;99.90;;;;;;5034113;28;20061;-84
2021/09/11 02:57:57;;;;;;;239.90;68.88;;;18.10;99.90;;;;;;5034632;28;20164;-84
2021/09/11 03:00:22;;;;;;;215.57;66.45;;;18.10;99.90;;;;;;5033286;28;20057;-84
2021/09/11 03:02:48;;;;;;;240.63;70.28;;;18.20;99.90;;;;;;5034467;28;20108;-84
2021/09/11 03:05:13;;;;;;;202.52;65.47;;;18.20;99.90;;;;;;5032660;28;20034;-85
2021/09/11 03:07:39;;;;;;;233.63;71.20;;;18.10;99.90;;;;;;5032996;28;20037;-84
2021/09/11 03:10:05;;;;;;;218.48;68.72;;;18.10;99.90;;;;;;5034442;28;20476;-84
2021/09/11 03:12:32;;;;;;;247.80;72.57;;;18.10;99.90;;;;;;5033146;28;20022;-85
2021/09/11 03:14:57;;;;;;;225.32;72.47;;;18.10;99.90;;;;;;5032407;28;20017;-85
2021/09/11 03:17:23;;;;;;;202.85;66.25;;;18.00;99.90;;;;;;5032999;28;20021;-85
2021/09/11 03:19:48;;;;;;;185.73;62.47;;;17.90;99.90;;;;;;5032971;28;20033;-85
2021/09/11 03:22:14;;;;;;;159.80;53.75;;;17.80;99.90;;;;;;5032918;28;20017;-84
2021/09/11 03:24:39;;;;;;;177.15;59.60;;;17.70;99.90;;;;;;5033638;28;20068;-85
2021/09/11 03:27:05;;;;;;;148.35;52.70;;;17.40;99.90;;;;;;5015537;28;20092;-85
2021/09/11 03:29:31;;;;;;;163.77;58.28;;;17.40;99.90;;;;;;5034060;28;20096;-85
2021/09/11 03:31:56;;;;;;;179.40;63.47;;;17.30;99.90;;;;;;5032767;28;20035;-84
2021/09/11 03:34:22;;;;;;;159.40;58.00;;;17.30;99.90;;;;;;5033666;28;20037;-85
2021/09/11 03:36:48;;;;;;;147.73;51.20;;;17.30;99.90;;;;;;5033610;28;20113;-85
2021/09/11 03:39:13;;;;;;;170.77;60.85;;;17.20;99.90;;;;;;5033937;28;20041;-85
2021/09/11 03:41:39;;;;;;;176.63;59.42;;;17.30;99.90;;;;;;5032609;28;20021;-86
2021/09/11 03:44:04;;;;;;;174.02;61.08;;;17.20;99.90;;;;;;5033514;28;20025;-85
2021/09/11 03:46:30;;;;;;;179.43;66.88;;;17.30;99.90;;;;;;5033425;28;20030;-85
2021/09/11 03:48:55;;;;;;;170.75;56.65;;;17.20;99.90;;;;;;5033672;28;20057;-85
2021/09/11 03:51:21;;;;;;;224.48;71.97;;;17.20;99.90;;;;;;5033916;28;20037;-85
2021/09/11 03:53:46;;;;;;;176.65;59.22;;;17.10;99.90;;;;;;5033430;28;20486;-85
2021/09/11 03:56:12;;;;;;;175.85;62.58;;;17.20;99.90;;;;;;5033278;28;20610;-85
2021/09/11 03:58:38;;;;;;;179.13;62.13;;;17.10;99.90;;;;;;5032284;28;20025;-85
2021/09/11 04:01:04;;;;;;;205.90;69.80;;;17.10;99.90;;;;;;5032298;28;20029;-85
2021/09/11 04:03:30;;;;;;;253.50;75.18;;;17.20;99.90;;;;;;5032020;28;20025;-84
2021/09/11 04:05:56;;;;;;;217.90;69.65;;;17.20;99.90;;;;;;5032757;28;20029;-85
2021/09/11 04:08:21;;;;;;;205.27;64.95;;;17.20;99.90;;;;;;5031884;28;20028;-84
2021/09/11 04:10:47;;;;;;;222.38;71.57;;;17.20;99.90;;;;;;5032027;28;20059;-84
2021/09/11 04:13:12;;;;;;;207.63;66.45;;;17.30;99.90;;;;;;5033170;28;20033;-85
2021/09/11 04:15:38;;;;;;;207.02;67.45;;;17.50;99.90;;;;;;5031682;28;20474;-85
2021/09/11 04:18:03;;;;;;;233.98;74.88;;;17.30;99.90;;;;;;5032884;28;20056;-85
2021/09/11 04:20:29;;;;;;;223.80;72.38;;;17.30;99.90;;;;;;5031870;28;20489;-85
2021/09/11 04:22:55;;;;;;;215.32;66.68;;;17.30;99.90;;;;;;5031720;28;20026;-85
2021/09/11 04:25:20;;;;;;;215.10;67.85;;;17.30;99.90;;;;;;5031515;28;20021;-85
2021/09/11 04:27:46;;;;;;;252.80;73.43;;;17.40;99.90;;;;;;5032689;28;20095;-85
2021/09/11 04:30:12;;;;;;;219.18;67.13;;;17.30;99.90;;;;;;5032949;28;20071;-86
2021/09/11 04:32:38;;;;;;;161.43;56.90;;;17.30;99.90;;;;;;5032906;28;20021;-84
2021/09/11 04:35:04;;;;;;;233.25;69.03;;;17.20;99.90;;;;;;5031324;28;20116;-84
2021/09/11 04:37:29;;;;;;;200.07;64.95;;;17.20;99.90;;;;;;5014777;28;20018;-85
2021/09/11 04:39:55;;;;;;;183.38;61.13;;;17.30;99.90;;;;;;5031525;28;20021;-86
2021/09/11 04:42:21;;;;;;;232.70;69.50;;;17.30;99.90;;;;;;5032535;28;20104;-85
2021/09/11 04:44:47;;;;;;;192.35;66.18;;;17.40;99.90;;;;;;5031176;28;20034;-85
2021/09/11 04:47:14;;;;;;;190.43;62.38;;;17.40;99.90;;;;;;5032482;28;20140;-85
2021/09/11 04:49:39;;;;;;;196.57;65.78;;;17.40;99.90;;;;;;5031340;28;20551;-85
2021/09/11 04:52:05;;;;;;;179.77;60.80;;;17.40;99.90;;;;;;5032579;28;20478;-85
2021/09/11 04:54:31;;;;;;;213.90;67.00;;;17.40;99.90;;;;;;5031120;28;20111;-85
2021/09/11 04:56:57;;;;;;;214.40;70.88;;;17.40;99.90;;;;;;5032333;28;20048;-86
2021/09/11 04:59:22;;;;;;;194.02;61.88;;;17.50;99.90;;;;;;5030772;28;20683;-86
2021/09/11 05:01:48;;;;;;;175.35;60.17;;;17.50;99.90;;;;;;5030762;28;20029;-85
2021/09/11 05:04:13;;;;;;;190.40;60.80;;;17.50;99.90;;;;;;5032024;28;20025;-84
2021/09/11 05:06:39;;;;;;;226.73;70.80;;;17.40;99.90;;;;;;5014526;28;20445;-86
2021/09/11 05:09:04;;;;;;;194.85;65.18;;;17.50;99.90;;;;;;5032005;28;20097;-85
2021/09/11 05:11:30;;;;;;;203.90;63.35;;;17.40;99.90;;;;;;5031643;28;20367;-86
2021/09/11 05:13:56;;;;;;;181.45;61.17;;;17.30;99.90;;;;;;5014297;28;20025;-86
2021/09/11 05:16:21;;;;;;;258.60;75.63;;;17.40;99.90;;;;;;5032076;28;20650;-86
2021/09/11 05:18:47;;;;;;;211.50;63.42;;;17.50;99.90;;;;;;5032133;28;20032;-85
2021/09/11 05:21:12;;;;;;;198.30;65.50;;;17.60;99.90;;;;;;5030764;28;20520;-86
2021/09/11 05:23:38;;;;;;;215.23;67.53;;;17.70;99.90;;;;;;5031527;28;20037;-86
2021/09/11 05:26:05;;;;;;;158.75;57.92;;;17.50;99.90;;;;;;5030351;28;20083;-86
2021/09/11 05:28:31;;;;;;;169.23;55.10;;;17.60;99.90;;;;;;5030749;28;20402;-86
2021/09/11 05:30:57;;;;;;;177.65;61.00;;;17.60;99.90;;;;;;5014225;28;20032;-86
2021/09/11 05:33:22;;;;;;;183.05;60.28;;;17.60;99.90;;;;;;5031791;28;20030;-86
2021/09/11 05:35:48;;;;;;;201.98;66.82;;;17.70;99.90;;;;;;5031622;28;20045;-86
2021/09/11 05:38:14;;;;;;;225.23;71.35;;;17.60;99.90;;;;;;5030848;28;20080;-85
2021/09/11 05:40:39;;;;;;;210.52;70.00;;;17.70;99.90;;;;;;5030523;28;20078;-85
2021/09/11 05:43:05;;;;;;;216.40;72.30;;;17.80;99.90;;;;;;5030305;28;20033;-84
2021/09/11 05:45:31;;;;;;;198.95;65.20;;;17.80;99.90;;;;;;5030195;28;20076;-82
2021/09/11 05:47:56;;;;;;;189.82;64.30;;;17.80;99.90;;;;;;5030552;28;20022;-82
2021/09/11 05:50:22;;;;;;;211.23;71.90;;;17.90;99.90;;;;;;5036055;28;20036;-82
2021/09/11 05:52:47;;;;;;;203.32;69.90;;;17.80;99.90;;;;;;5036760;28;20136;-82
2021/09/11 05:55:15;;;;;;;187.85;68.65;;;18.00;99.90;;;;;;5036687;28;20036;-81
2021/09/11 05:57:41;;;;;;;238.00;75.82;;;18.00;99.90;;;;;;5037055;28;20025;-81
2021/09/11 06:00:07;;;;;;;201.95;72.95;;;18.00;99.90;;;;;;5038237;28;20025;-85
2021/09/11 06:02:33;;;;;;;184.38;67.80;;;18.10;99.90;;;;;;5036161;28;20079;-84
2021/09/11 06:04:58;;;;;;;217.52;75.43;;;18.10;99.90;;;;;;5037423;28;20038;-85
2021/09/11 06:07:24;;;;;;;183.60;71.38;;;18.20;99.90;;;;;;5037521;28;20021;-81
2021/09/11 06:09:49;;;;;;;183.27;68.97;;;18.20;99.90;;;;;;5036732;28;20108;-85
2021/09/11 06:12:15;;;;;;;187.73;72.57;;;18.40;99.90;;;;;;5036635;28;20024;-83
2021/09/11 06:14:41;;;;;;;169.23;67.03;;;18.40;99.90;;;;;;5037500;28;20552;-82
2021/09/11 06:17:08;;;;;;;183.60;75.30;;;18.50;99.90;;;;;;5036667;28;20695;-82
2021/09/11 06:19:35;;;;;;;193.00;74.85;;;18.30;99.90;;;;;;5038097;28;20044;-83
2021/09/11 06:22:01;;;;;;;174.10;71.88;;;18.30;99.90;;;;;;5037949;28;20026;-83
2021/09/11 06:24:27;;;;;;;179.63;72.45;;;18.40;99.90;;;;;;5037313;28;20034;-80
2021/09/11 06:26:53;;;;;;;163.73;70.00;;;18.30;99.90;;;;;;5037770;28;20066;-81
2021/09/11 06:29:19;;;;;;;184.75;73.18;;;18.50;99.90;;;;;;5037971;28;20105;-80
2021/09/11 06:31:44;;;;;;;150.05;66.63;;;18.20;99.90;;;;;;5037916;28;20143;-81
2021/09/11 06:34:10;;;;;;;156.35;68.72;;;18.10;99.90;;;;;;5037161;28;20426;-80
2021/09/11 06:36:36;;;;;;;177.10;70.10;;;18.20;99.90;;;;;;5036474;28;20509;-82
2021/09/11 06:39:01;;;;;;;169.65;69.35;;;18.20;99.90;;;;;;5037869;28;20083;-82
2021/09/11 06:41:27;;;;;;;161.40;67.65;;;18.30;99.90;;;;;;5037697;28;20038;-84
2021/09/11 06:43:52;;;;;;;150.55;65.45;;;18.30;99.90;;;;;;5037382;28;20025;-83
2021/09/11 06:46:18;;;;;;;160.68;65.50;;;18.30;99.90;;;;;;5037454;28;20035;-83
2021/09/11 06:48:43;;;;;;;137.70;61.35;;;18.30;99.90;;;;;;5037618;28;20029;-83
2021/09/11 06:51:12;;;;;;;131.88;59.47;;;18.30;99.90;;;;;;5037245;28;20044;-81
2021/09/11 06:53:38;;;;;;;130.82;58.75;;;18.40;99.90;;;;;;5036349;28;20056;-80
2021/09/11 06:56:04;;;;;;;130.07;58.85;;;18.40;99.90;;;;;;5036157;28;20059;-81
2021/09/11 06:58:30;;;;;;;130.52;58.63;;;18.20;99.90;;;;;;5037700;28;20516;-81
2021/09/11 07:00:56;;;;;;;146.43;58.08;;;18.20;99.90;;;;;;5034348;28;20029;-81
2021/09/11 07:03:21;;;;;;;126.63;57.10;;;18.20;99.90;;;;;;5032805;28;20030;-81
2021/09/11 07:05:47;;;;;;;139.52;57.83;;;18.20;99.90;;;;;;5034171;28;20041;-81
2021/09/11 07:08:12;;;;;;;112.65;52.92;;;18.30;99.90;;;;;;5034113;28;20100;-83
2021/09/11 07:10:38;;;;;;;127.65;56.08;;;18.30;99.90;;;;;;5033018;28;20033;-82
2021/09/11 07:13:03;;;;;;;107.22;51.85;;;18.30;99.90;;;;;;5034104;28;20033;-84
2021/09/11 07:15:29;;;;;;;104.85;51.95;;;18.40;99.90;;;;;;5033813;28;20386;-82
2021/09/11 07:17:55;;;;;;;117.85;54.72;;;18.40;99.90;;;;;;5034289;28;20025;-83
2021/09/11 07:20:21;;;;;;;123.97;55.22;;;18.40;99.90;;;;;;5034127;28;20026;-83
2021/09/11 07:22:47;;;;;;;119.05;53.83;;;18.30;99.90;;;;;;5032859;28;20044;-83
2021/09/11 07:25:13;;;;;;;108.20;51.15;;;18.40;99.90;;;;;;5033473;28;20486;-82
2021/09/11 07:27:38;;;;;;;104.15;52.20;;;18.40;99.90;;;;;;5034071;28;20068;-82
2021/09/11 07:30:05;;;;;;;107.85;52.65;;;18.50;99.90;;;;;;5032662;28;20112;-82
2021/09/11 07:32:30;;;;;;;103.40;50.30;;;18.50;99.90;;;;;;5032430;28;20021;-83
2021/09/11 07:34:56;;;;;;;101.10;50.17;;;18.50;99.90;;;;;;5033594;28;20032;-83
2021/09/11 07:37:22;;;;;;;91.60;46.45;;;18.40;99.90;;;;;;5016181;28;20025;-83
2021/09/11 07:39:47;;;;;;;93.93;48.20;;;18.40;99.90;;;;;;5016120;28;20021;-83
2021/09/11 07:42:14;;;;;;;86.82;46.53;;;18.50;99.90;;;;;;5015744;28;20029;-82
2021/09/11 07:44:40;;;;;;;106.95;49.42;;;18.30;99.90;;;;;;5033416;28;20026;-82
2021/09/11 07:47:05;;;;;;;89.78;45.42;;;18.30;99.90;;;;;;5032352;28;20509;-84
2021/09/11 07:49:31;;;;;;;87.25;45.05;;;18.30;99.90;;;;;;5032486;28;20065;-83
2021/09/11 07:51:56;;;;;;;86.07;44.50;;;18.40;99.90;;;;;;5033704;28;20030;-83
2021/09/11 07:54:22;;;;;;;90.05;46.58;;;18.40;99.90;;;;;;5032090;28;20042;-83
2021/09/11 07:56:48;;;;;;;91.35;48.17;;;18.50;99.90;;;;;;5033246;28;20100;-83
2021/09/11 07:59:13;;;;;;;88.50;45.30;;;18.50;99.90;;;;;;5032034;28;20116;-82
2021/09/11 08:01:39;;;;;;;81.32;43.97;;;18.50;99.90;;;;;;5033475;28;20060;-83
2021/09/11 08:04:04;;;;;;;96.53;49.05;;;18.60;99.90;;;;;;5032917;28;20025;-82
2021/09/11 08:06:30;;;;;;;79.03;44.90;;;18.60;99.90;;;;;;5032082;28;20026;-82
2021/09/11 08:08:55;;;;;;;87.60;48.55;;;18.80;99.90;;;;;;5023127;28;20066;-82
2021/09/11 08:11:21;;;;;;;93.25;47.55;;;19.00;99.90;;;;;;5021095;28;20025;-83
2021/09/11 08:13:46;;;;;;;78.15;44.53;;;19.10;99.90;;;;;;5023943;28;20516;-82
2021/09/11 08:16:12;;;;;;;72.22;43.20;;;19.30;99.90;;;;;;5033144;28;20492;-80
2021/09/11 08:18:38;;;;;;;85.28;47.75;;;19.30;99.90;;;;;;5031786;28;20034;-79
2021/09/11 08:21:04;;;;;;;67.22;42.45;;;19.50;99.90;;;;;;5033061;28;20033;-80
2021/09/11 08:23:30;;;;;;;74.25;45.95;;;19.70;99.90;;;;;;5032656;28;20398;-79
2021/09/11 08:25:56;;;;;;;69.78;41.80;;;19.60;99.90;;;;;;5032591;28;20034;-81
2021/09/11 08:28:21;;;;;;;72.70;44.22;;;19.50;99.90;;;;;;5031723;28;20030;-80
2021/09/11 08:30:47;;;;;;;67.00;43.08;;;19.50;99.90;;;;;;5032919;28;20021;-81
2021/09/11 08:33:14;;;;;;;72.95;43.88;;;19.60;99.90;;;;;;5032779;28;20032;-83
2021/09/11 08:35:40;;;;;;;65.75;40.53;;;19.70;99.90;;;;;;5032222;28;20033;-78
2021/09/11 08:38:05;;;;;;;68.53;43.00;;;19.80;99.90;;;;;;5031506;28;20079;-84
2021/09/11 08:40:31;;;;;;;67.55;37.17;;;19.90;99.90;;;;;;5032563;28;20601;-84
2021/09/11 08:42:58;;;;;;;60.28;38.13;;;19.80;99.90;;;;;;5031400;28;20029;-82
2021/09/11 08:45:23;;;;;;;63.13;39.00;;;19.70;99.90;;;;;;5032140;28;20025;-82
2021/09/11 08:47:49;;;;;;;57.92;37.70;;;19.80;99.90;;;;;;5031218;28;20025;-81
2021/09/11 08:50:17;;;;;;;56.47;36.33;;;19.60;99.90;;;;;;5032598;28;20025;-84
2021/09/11 08:52:44;;;;;;;54.28;35.90;;;19.80;99.90;;;;;;5032468;28;20021;-84
2021/09/11 08:55:11;;;;;;;52.70;34.58;;;19.80;99.90;;;;;;5030709;28;20025;-87
2021/09/11 08:57:37;;;;;;;53.78;32.30;;;20.10;99.90;;;;;;5030891;28;20485;-84
2021/09/11 09:00:08;;;;;;;49.97;33.67;;;20.30;99.90;;;;;;5031207;28;20030;-85
2021/09/11 09:02:34;;;;;;;47.53;32.17;;;20.20;99.90;;;;;;5030858;28;20025;-83
2021/09/11 09:05:02;;;;;;;49.25;31.85;;;20.20;99.90;;;;;;5031852;28;20056;-82
2021/09/11 09:07:39;;;;;;;48.30;30.70;;;20.10;99.90;;;;;;5031776;28;20033;-82
2021/09/11 09:10:09;;;;;;;45.10;30.25;;;20.00;99.90;;;;;;5031031;28;20032;-82
2021/09/11 09:12:44;;;;;;;41.58;28.02;;;19.90;99.90;;;;;;5032325;28;20552;-82
2021/09/11 09:15:15;;;;;;;48.83;29.23;;;19.80;99.90;;;;;;5030365;28;20026;-82
2021/09/11 09:17:48;;;;;;;46.15;30.20;;;19.90;99.90;;;;;;5030926;28;20037;-82
2021/09/11 09:20:18;;;;;;;48.15;27.13;;;19.90;99.90;;;;;;5032136;28;20025;-82
2021/09/11 09:22:47;;;;;;;41.70;29.33;;;20.00;99.90;;;;;;5031943;28;20053;-83
2021/09/11 09:25:24;;;;;;;47.75;27.65;;;20.00;99.90;;;;;;5029819;28;20022;-83
2021/09/11 09:27:55;;;;;;;42.65;27.40;;;20.10;99.90;;;;;;5013816;28;20025;-82
2021/09/11 09:30:24;;;;;;;43.60;28.73;;;20.10;99.90;;;;;;5030772;28;20026;-84
2021/09/11 09:32:51;;;;;;;44.15;25.23;;;20.50;99.90;;;;;;5029504;28;20017;-85
2021/09/11 09:35:24;;;;;;;37.33;23.80;;;20.70;99.90;;;;;;5022769;28;20059;-84
2021/09/11 09:38:08;;;;;;;34.90;22.73;;;20.90;99.90;;;;;;5028659;28;20511;-82
2021/09/11 09:40:41;;;;;;;32.95;22.65;;;21.20;99.90;;;;;;5036404;28;20129;-82
2021/09/11 09:43:08;;;;;;;35.08;23.23;;;21.10;99.90;;;;;;5027881;28;20029;-84
2021/09/11 09:45:35;;;;;;;31.02;20.88;;;21.00;99.90;;;;;;5023759;28;20026;-81
2021/09/11 09:48:09;;;;;;;27.70;19.85;;;20.80;99.90;;;;;;5034331;28;20481;-81
2021/09/11 09:50:40;;;;;;;36.80;21.70;;;20.80;99.90;;;;;;5026894;28;20037;-81
2021/09/11 09:53:07;;;;;;;34.33;20.10;;;20.80;99.90;;;;;;5042957;28;20104;-82
2021/09/11 09:55:33;;;;;;;31.08;21.15;;;20.90;99.90;;;;;;5034550;28;20113;-81
2021/09/11 09:58:00;;;;;;;27.88;17.08;;;21.10;99.90;;;;;;5025742;28;20108;-80
2021/09/11 10:00:26;;;;;;;31.80;20.23;;;21.50;99.90;;;;;;5028324;28;20064;-81
2021/09/11 10:02:52;;;;;;;30.35;17.23;;;21.50;99.90;;;;;;5028641;28;20029;-82
2021/09/11 10:05:24;;;;;;;31.83;20.30;;;21.40;99.90;;;;;;5027943;28;20033;-80
2021/09/11 10:08:20;;;;;;;30.63;19.30;;;21.00;99.90;;;;;;5025495;28;20025;-81
2021/09/11 10:10:48;;;;;;;30.30;18.25;;;20.70;99.90;;;;;;5013043;28;20413;-82
2021/09/11 10:13:18;;;;;;;25.33;18.77;;;20.60;99.90;;;;;;5032573;28;20412;-82
2021/09/11 10:16:00;;;;;;;31.75;19.33;;;20.50;99.90;;;;;;5027420;28;20087;-80
2021/09/11 10:18:35;;;;;;;24.33;17.90;;;20.50;99.90;;;;;;5029746;28;20037;-81
2021/09/11 10:21:28;;;;;;;28.85;17.67;;;20.50;99.90;;;;;;5042047;28;20049;-82
2021/09/11 10:23:57;;;;;;;26.77;18.77;;;20.80;99.90;;;;;;5034898;28;20033;-82
2021/09/11 10:26:45;;;;;;;27.52;16.92;;;21.00;99.90;;;;;;5028023;28;20040;-82
2021/09/11 10:29:33;;;;;;;23.90;15.82;;;21.40;99.90;;;;;;5027652;28;20033;-80
2021/09/11 10:32:06;;;;;;;28.20;18.17;;;21.50;99.90;;;;;;5041606;28;20545;-81
2021/09/11 10:34:55;;;;;;;27.27;17.90;;;21.60;99.90;;;;;;5027804;28;20440;-80
2021/09/11 10:37:34;;;;;;;33.75;19.10;;;21.90;99.90;;;;;;5030893;28;20272;-82
2021/09/11 10:40:14;;;;;;;28.00;20.33;;;22.00;99.90;;;;;;5031466;28;20029;-82
2021/09/11 10:43:10;;;;;;;27.10;20.30;;;21.90;99.90;;;;;;5031560;28;20041;-80
2021/09/11 10:45:57;;;;;;;36.17;22.55;;;21.50;99.90;;;;;;5031416;28;20022;-83
2021/09/11 10:48:32;;;;;;;39.00;25.55;;;21.20;99.90;;;;;;5020379;28;20026;-81
2021/09/11 10:51:12;;;;;;;37.20;23.70;;;21.00;99.90;;;;;;5029557;28;20406;-80
2021/09/11 10:53:38;;;;;;;36.13;25.67;;;20.80;99.90;;;;;;5031408;28;20057;-82
2021/09/11 10:56:24;;;;;;;52.20;26.55;;;20.60;99.90;;;;;;5031270;28;20080;-79
2021/09/11 10:59:18;;;;;;;35.00;25.65;;;20.30;99.90;;;;;;5019479;28;20042;-80
2021/09/11 11:02:13;;;;;;;38.92;27.95;;;20.30;99.90;;;;;;5022650;28;20120;-80
2021/09/11 11:04:53;;;;;;;41.22;27.48;;;20.20;99.90;;;;;;5022490;28;20435;-79
2021/09/11 11:07:18;;;;;;;45.80;28.38;;;20.20;99.90;;;;;;5026695;28;20038;-80
2021/09/11 11:10:05;;;;;;;44.03;28.23;;;20.20;99.90;;;;;;5036624;28;20044;-79
2021/09/11 11:12:32;;;;;;;54.90;28.55;;;20.30;99.90;;;;;;5030581;28;20036;-79
2021/09/11 11:15:02;;;;;;;46.15;27.70;;;20.50;99.90;;;;;;5034392;28;20035;-79
2021/09/11 11:17:28;;;;;;;47.92;27.48;;;20.50;99.90;;;;;;5029902;28;20436;-80
2021/09/11 11:19:55;;;;;;;44.80;27.15;;;20.40;99.90;;;;;;5030365;28;20056;-79
2021/09/11 11:22:35;;;;;;;44.03;26.35;;;20.30;99.90;;;;;;5031131;28;20022;-79
2021/09/11 11:25:03;;;;;;;44.70;28.15;;;20.20;99.90;;;;;;5033839;28;20385;-80
2021/09/11 11:27:29;;;;;;;47.90;27.73;;;20.00;99.90;;;;;;5011252;28;20024;-79
2021/09/11 11:29:56;;;;;;;45.03;27.27;;;20.00;99.90;;;;;;5033308;28;20622;-80
2021/09/11 11:32:29;;;;;;;48.13;28.95;;;20.00;99.90;;;;;;5030850;28;20079;-79
2021/09/11 11:34:59;;;;;;;50.00;30.27;;;19.70;99.90;;;;;;5030558;28;20112;-81
2021/09/11 11:37:33;;;;;;;55.80;30.08;;;19.70;99.90;;;;;;5032583;28;20555;-80
2021/09/11 11:40:02;;;;;;;48.97;31.58;;;19.40;99.90;;;;;;5043683;28;20041;-79
2021/09/11 11:42:33;;;;;;;54.97;33.33;;;19.20;99.90;;;;;;5035753;28;20558;-81
2021/09/11 11:44:58;;;;;;;47.05;30.30;;;19.00;99.90;;;;;;5030643;28;20036;-82
2021/09/11 11:47:29;;;;;;;62.05;35.83;;;18.90;99.90;;;;;;5029784;28;20021;-81
2021/09/11 11:49:55;;;;;;;61.15;37.47;;;18.80;99.90;;;;;;5036562;28;20132;-80
2021/09/11 11:52:22;;;;;;;63.45;36.45;;;18.70;99.90;;;;;;5030558;28;20203;-80
2021/09/11 11:54:49;;;;;;;62.10;38.22;;;18.70;99.90;;;;;;5029614;28;20033;-80
2021/09/11 11:57:17;;;;;;;76.93;36.80;;;19.00;99.90;;;;;;5030609;28;20037;-81
2021/09/11 11:59:43;;;;;;;61.63;34.88;;;18.80;99.90;;;;;;5029953;28;20067;-81
2021/09/11 12:02:20;;;;;;;73.55;36.83;;;19.10;99.90;;;;;;5029971;28;20022;-83
2021/09/11 12:04:48;;;;;;;69.78;35.83;;;18.90;99.90;;;;;;5039131;28;20075;-82
2021/09/11 12:07:31;;;;;;;68.25;35.45;;;18.90;99.90;;;;;;5028697;28;20542;-81
2021/09/11 12:10:00;;;;;;;66.82;34.15;;;19.00;99.90;;;;;;5036227;28;20017;-80
2021/09/11 12:12:48;;;;;;;75.40;36.80;;;19.00;99.90;;;;;;5020871;28;20025;-82
2021/09/11 12:15:20;;;;;;;63.92;34.20;;;19.00;99.90;;;;;;5023885;28;20029;-80
2021/09/11 12:17:57;;;;;;;76.15;36.03;;;18.90;99.90;;;;;;5028980;28;20028;-80
2021/09/11 12:20:24;;;;;;;70.30;36.20;;;18.90;99.90;;;;;;5028318;28;20029;-82
2021/09/11 12:23:07;;;;;;;86.78;37.35;;;18.90;99.90;;;;;;5029602;28;20029;-81
2021/09/11 12:26:12;;;;;;;74.32;35.67;;;18.90;99.90;;;;;;5031422;28;20562;-80
2021/09/11 12:28:42;;;;;;;;;;;18.90;99.90;;;;;;4989628;28;20545;-80